TimeCST,TemperatureF,Dew PointF,Humidity,Sea Level PressureIn,VisibilityMPH,Wind Direction,Wind SpeedMPH,Gust SpeedMPH,PrecipitationIn,Events,Conditions,WindDirDegrees,DateUTC
12:00 AM,66.2,62.6,88,30.30,6.2,NNE,6.9,-,N/A,,Scattered Clouds,20,2013-08-11 06:00:00
1:00 AM,64.4,62.6,94,30.27,6.2,NNE,4.6,-,N/A,,Mostly Cloudy,20,2013-08-11 07:00:00
2:00 AM,64.4,62.6,94,30.27,6.2,NNE,6.9,-,N/A,,Scattered Clouds,20,2013-08-11 08:00:00
3:00 AM,64.4,62.6,94,30.30,6.2,North,6.9,-,N/A,,Mostly Cloudy,360,2013-08-11 09:00:00
4:00 AM,64.4,62.6,94,30.24,6.2,North,9.2,-,N/A,,Mostly Cloudy,360,2013-08-11 10:00:00
5:00 AM,64.4,62.6,94,30.24,6.2,North,9.2,-,N/A,,Mostly Cloudy,360,2013-08-11 11:00:00
5:40 AM,-9999,-9999,N/A,-9999,6.2,North,9.2,-,N/A,,Light Drizzle,360,2013-08-11 11:40:00
6:00 AM,64,62,90,29.97,25,North,9.2,,,Rain,Light Drizzle,0,2013-08-11 12:00:00
6:00 AM,64.4,62.6,94,30.27,6.2,North,9.2,-,N/A,,Light Drizzle,360,2013-08-11 12:00:00
7:00 AM,64.4,62.6,94,30.30,6.2,North,11.5,-,N/A,,Mostly Cloudy,360,2013-08-11 13:00:00
8:00 AM,68.0,62.6,83,30.30,6.2,NE,6.9,-,N/A,,Mostly Cloudy,40,2013-08-11 14:00:00
9:00 AM,69.8,60.8,73,30.30,6.2,NNE,11.5,-,N/A,,Scattered Clouds,20,2013-08-11 15:00:00
10:00 AM,69.8,60.8,73,30.30,6.2,North,13.8,-,N/A,,Mostly Cloudy,360,2013-08-11 16:00:00
11:00 AM,71.6,60.8,69,30.30,6.2,North,13.8,-,N/A,,Scattered Clouds,360,2013-08-11 17:00:00
12:00 PM,75.2,60.8,61,30.27,6.2,NNE,13.8,-,N/A,,Scattered Clouds,20,2013-08-11 18:00:00
1:00 PM,77.0,60.8,57,30.24,6.2,NE,11.5,-,N/A,,Scattered Clouds,40,2013-08-11 19:00:00
2:00 PM,75.2,62.6,65,30.21,6.2,NNE,11.5,-,N/A,Thunderstorm,Thunderstorm,20,2013-08-11 20:00:00
3:00 PM,73.4,60.8,65,30.21,6.2,NNE,11.5,-,N/A,,Mostly Cloudy,20,2013-08-11 21:00:00
4:00 PM,75.2,59.0,57,30.18,6.2,NNE,9.2,-,N/A,,Mostly Cloudy,20,2013-08-11 22:00:00
5:00 PM,75.2,59.0,57,30.18,6.2,NNE,11.5,-,N/A,,Mostly Cloudy,30,2013-08-11 23:00:00
6:00 PM,73,60,55,29.86,25,NNE,6.9,,,,Partly Cloudy,20,2013-08-12 00:00:00
6:00 PM,73.4,60.8,65,30.18,6.2,NNE,6.9,-,N/A,,Scattered Clouds,20,2013-08-12 00:00:00
6:30 PM,-9999,-9999,N/A,-9999,5.0,North,16.1,-,N/A,Rain,Light Rain,360,2013-08-12 00:30:00
6:40 PM,-9999,-9999,N/A,-9999,6.2,North,13.8,-,N/A,,Light Drizzle,360,2013-08-12 00:40:00
7:00 PM,69.8,62.6,78,30.24,6.2,North,9.2,-,N/A,,Light Drizzle,360,2013-08-12 01:00:00
8:00 PM,68.0,64.4,88,30.24,6.2,North,13.8,-,N/A,,Light Drizzle,360,2013-08-12 02:00:00
9:00 PM,66.2,64.4,94,30.27,6.2,North,6.9,-,N/A,,Mostly Cloudy,360,2013-08-12 03:00:00
9:40 PM,-9999,-9999,N/A,-9999,6.2,North,11.5,-,N/A,,Light Drizzle,360,2013-08-12 03:40:00
10:00 PM,66.2,64.4,94,30.30,6.2,North,11.5,-,N/A,,Drizzle,360,2013-08-12 04:00:00
10:08 PM,-9999,-9999,N/A,-9999,1.9,North,9.2,-,N/A,Rain,Rain,360,2013-08-12 04:08:00
10:20 PM,-9999,-9999,N/A,-9999,6.2,North,5.8,-,N/A,,Light Drizzle,360,2013-08-12 04:20:00
11:00 PM,66.2,64.4,94,30.30,6.2,North,11.5,-,N/A,,Drizzle,360,2013-08-12 05:00:00